Berryton, KS (66409)

7:08 PM CST on February 07, 2016 (GMT -0600)
Middleton Subdivision | | Change Station
CLOSE
Current Station
Personal Weather Station
Location: Berryton, KS
Elevation: 1093 ft
Nearby Weather Stations
Active Advisory: Wind Advisory

Elev 1093 ft 38.95 °N, 95.58 °W | Updated 5 seconds ago

Overcast
Overcast
43.3 °F
Feels Like 42 °F
N
3.6
Wind Variable Wind from NW
Gusts 4.9 mph

Today
High -- | Low -- °F
--% Chance of Precip.
Yesterday
High -- | Low -- °F
Precip. -- in
Pressure 30.09 in
Visibility 10.0 miles
Clouds Few 6000 ft
Mostly Cloudy 7000 ft
Overcast 9000 ft
Windchill 42 °F
Dew Point 22 °F
Humidity 42%
Rainfall 0.00 in
Snow Depth Not available.
7:23 AM 5:50 PM
Waning Crescent, 0% visible
METAR KFOE 080053Z 32024G43KT 10SM FEW060 BKN070 OVC090 07/M06 A3008 RMK AO2 PK WND 31043/0045 SLP190 T00671056
Pressure 30.09 in
Visibility 10.0 miles
Clouds Few 6000 ft
Mostly Cloudy 7000 ft
Overcast 9000 ft
Windchill 42 °F
Dew Point 22 °F
Humidity 42%
Rainfall 0.00 in
Snow Depth Not available.
7:23 AM 5:50 PM
Waning Crescent, 0% visible
METAR KFOE 080053Z 32024G43KT 10SM FEW060 BKN070 OVC090 07/M06 A3008 RMK AO2 PK WND 31043/0045 SLP190 T00671056

10-Day Weather Forecast

Almanac

Astronomy

Feb. 07, 2016 Rise Set
Actual Time
Civil Twilight
Nautical Twilight
Astronomical Twilight
Moon
Length of Visible Light
Length of Day
Tomorrow will be .
, % of the Moon is Illuminated

Today's Extremes

State Highs State Lows

Community

WunderPhotos

Upload Photos

1,891,340 photos uploaded!

WunderBlog® & News

Nearby

Air Quality

  Air Quality AQ Index Pollutant
Not available.

Snow Depth

Station Depth Elevation

Earthquake Activity

City Distance Mag. Time & Date
Minimum magnitude displayed is 2.5.

Coastal Water Temperatures

Place Temperature

Stations

Nearby Weather Stations

Station Location Temp. Windchill Dew Point Humidity Wind Precip. Elev Updated Type
                   

Watches & Warnings

Wind Advisory
Issued: 6:05 PM CST Feb. 7, 2016 – National Weather Service

... Wind Advisory remains in effect from 8 am to 6 PM CST Monday...

* timing... wind speeds are expected to increase shortly after
sunrise and continue through the late afternoon.

* Winds... northwest winds will be sustained from 25 to 35 mph
with gusts around 45 mph.

* Impacts... loose and lightweight objects may be blown around by
the wind. Motorists should keep both hands on the steering
wheel. Light snow or flurries are also possible... and this
wind would combine with any falling snow to create greatly
reduced and quickly changing visibilities.

Precautionary/preparedness actions...

A Wind Advisory means that sustained winds of 30 mph or gusts to
45 mph are expected. Winds this strong can make driving
difficult... especially for high profile vehicles. Use extra
caution.